Weather at Northern Trust Tower Helipad

Public forecast

Using degrees Fahrenheit for public forecast. Weather courtesy of forecast.io.

Closest aviation weather report (METAR) to Northern Trust Tower Helipad

Report is more than 2 hours old.

Closest report is Miramar Marine Corps Air Station - Mitscher Field, 3.5 nm (6.4 km) E.

2024/06/24 19:55 (retrieved 3 hours ago)

KNKX 241955Z 28008KT 10SM FEW100 29/16 A2990 RMK AO2 SLP117 T02940161

Closest aviation forecast (TAF) to Northern Trust Tower Helipad

Forecast is more than 12 hours old.

Closest forecast is Miramar Marine Corps Air Station - Mitscher Field, 3.5 nm (6.4 km) E.

2024/06/22 15:48 Ammendment (retrieved 2 days ago)

TAF AMD KNKX 2215/2315 VRB03KT 4000 HZ FEW020 QNH2982INS FM220630 VRB03KT 8000 BR SCT010 QNH2988INS BECMG 2209/2211 32003KT BKN010 QNH2987INS T23/2221Z T14/2307Z AMD 1540